Welcome, Guest. Please login or register.
Did you miss your activation email?

Username: Password:
Outdoor Wood Furnace Info - Statistics Center
General Statistics
Total Members: 8206
Total Posts: 76377
Total Topics: 7168
Total Categories: 6
Users Online: 12
Most Online: 165 - May 22, 2013, 12:42:02 PM
Online Today: 28
Average registrations per day: 6.89
Average posts per day: 22.29
Average topics per day: 2.58
Total Boards: 50
Latest Member: CRSJHorne
Average online per day: 24.94
Male to Female Ratio: 89.8:1
Top 10 Posters Top 10 Boards
mlappin 3846
Scott7m 3740
RSI 2861
willieG 1852
Roger2561 1607
hondaracer2oo4 1421
coolidge 1400
atvalaska 1278
MattyNH 1270
caper 1181
General Outdoor Furnace Discussion 30286
Plumbing 7383
Central Boiler 4646
General Discussion 4343
HeatMaster 3868
Portage & Main 3683
Fire Wood 3234
Home Made 2485
Equipment 2251
Electronics 2182
Top 10 Topics (by Replies) Top 10 Topics (by Views)
new heatmor and having huge issues 491
our wood stoves are horrible but epa thinks this is fine 344
Gasification wood boiler build 303
Almost 172
Wood Consumption vs. Application 144
TYPE of CHAIN SAWS USED 138
ProFab has some issues! 130
Ridgewood stoves 124
Global warming, climate change? Article 124
I'm impressed 123
Synergy Boilers? 579762
HELP! I hate my SHAVER! 467242
TAKE A STAND AGAINST MIDWEST (SYNERGY) BOILERS 446495
Synergy Boilers 98632
Gasification wood boiler build 60056
new heatmor and having huge issues 35447
Truth about Wood Doctor by president 31092
My homemade/modified forced air wood furnace 28228
Suggested Water Temperature on Boiler 28198
Used Hardy Stove info 24471
Top Topic Starters Most Time Online
coolidge 333
Roger2561 219
mlappin 108
slimjim 107
Scott7m 102
d5knapp 90
userdk 70
AirForcePOL 66
hondaracer2oo4 60
heat550 55
slimjim 89d 20h 18m
willieG 89d 16h 0m
RSI 46d 21h 26m
mlappin 36d 22h 2m
Scott7m 35d 21h 14m
koutsman 29d 14h 29m
MD20/20 26d 14h 52m
sceptre74 24d 20h 54m
CountryBoyJohn 21d 1h 58m
Roger2561 20d 16h 48m
Forum History (using forum time offset)
Yearly Summary New Topics New Posts New Members Most Online
* 2018 196 2270 2076 54
* 2017 597 7391 3268 65
December 2017 70 940 259 42
November 2017 77 940 272 40
October 2017 66 673 305 48
2017-10-01 3 19 13 25
2017-10-02 1 23 6 28
2017-10-03 3 29 9 25
2017-10-04 3 15 9 26
2017-10-05 0 3 17 20
2017-10-06 3 12 6 19
2017-10-07 1 14 5 23
2017-10-08 0 5 5 21
2017-10-09 0 25 15 25
2017-10-10 1 6 12 23
2017-10-11 3 8 12 21
2017-10-12 2 13 11 25
2017-10-13 3 32 8 20
2017-10-14 0 15 7 22
2017-10-15 4 28 2 24
2017-10-16 2 32 10 25
2017-10-17 3 53 9 22
2017-10-18 3 21 13 23
2017-10-19 0 7 22 22
2017-10-20 0 23 12 24
2017-10-21 0 6 7 22
2017-10-22 2 21 2 27
2017-10-23 3 23 10 26
2017-10-24 1 21 15 26
2017-10-25 4 19 9 26
2017-10-26 4 38 15 28
2017-10-27 3 37 11 29
2017-10-28 4 56 8 25
2017-10-29 6 34 10 48
2017-10-30 1 16 8 27
2017-10-31 3 19 7 29
September 2017 40 581 253 42
August 2017 50 619 275 31
July 2017 16 164 329 33
June 2017 28 227 264 54
2017-06-01 1 16 9 24
2017-06-02 2 7 6 19
2017-06-03 1 11 11 21
2017-06-04 0 4 10 18
2017-06-05 0 7 4 20
2017-06-06 1 3 3 19
2017-06-07 0 2 12 24
2017-06-08 0 1 17 18
2017-06-09 1 10 11 36
2017-06-10 1 6 9 54
2017-06-11 0 7 10 22
2017-06-12 1 8 8 32
2017-06-13 1 4 9 35
2017-06-14 2 7 11 20
2017-06-15 2 19 4 23
2017-06-16 1 16 6 20
2017-06-17 0 5 4 19
2017-06-18 1 3 12 21
2017-06-19 2 12 9 17
2017-06-20 2 16 7 20
2017-06-21 0 6 3 15
2017-06-22 1 6 8 22
2017-06-23 0 3 8 16
2017-06-24 0 1 4 38
2017-06-25 0 1 5 24
2017-06-26 2 7 8 18
2017-06-27 1 9 15 18
2017-06-28 2 20 13 19
2017-06-29 2 5 13 20
2017-06-30 1 5 15 16
May 2017 30 407 291 45
April 2017 40 748 290 60
March 2017 46 601 306 49
February 2017 43 569 241 65
January 2017 91 922 183 53
* 2016 546 5025 3090 75
* 2015 1317 11279 9513 67
December 2015 106 910 2179 40
November 2015 236 968 2620 60
October 2015 169 843 906 46
September 2015 42 202 593 35
2015-09-01 3 27 11 27
2015-09-02 3 8 32 26
2015-09-03 3 9 30 26
2015-09-04 5 14 24 23
2015-09-05 1 8 28 24
2015-09-06 2 18 23 24
2015-09-07 2 5 18 24
2015-09-08 0 2 8 26
2015-09-10 0 2 16 28
2015-09-11 0 0 25 31
2015-09-12 0 1 20 32
2015-09-13 1 3 24 33
2015-09-14 0 5 21 35
2015-09-15 0 5 20 32
2015-09-16 1 5 12 26
2015-09-17 2 6 22 29
2015-09-18 0 10 26 25
2015-09-19 0 3 27 28
2015-09-20 2 2 30 26
2015-09-21 3 4 16 27
2015-09-22 1 4 20 27
2015-09-23 1 3 28 32
2015-09-24 1 2 18 26
2015-09-25 2 4 17 24
2015-09-26 0 7 14 35
2015-09-27 1 2 10 35
2015-09-28 1 8 4 30
2015-09-29 5 23 31 28
2015-09-30 2 12 18 29
August 2015 49 274 447 41
July 2015 35 353 449 53
June 2015 32 269 266 42
May 2015 66 519 364 46
April 2015 92 795 418 39
March 2015 113 1670 400 46
February 2015 175 2072 445 56
January 2015 202 2404 426 67
* 2014 2461 21938 4588 110
* 2013 1171 11341 1091 165
December 2013 205 1813 294 78
2013-12-01 6 97 4 63
2013-12-02 6 57 6 46
2013-12-03 12 58 3 48
2013-12-04 5 65 2 67
2013-12-05 2 30 6 59
2013-12-06 3 35 3 36
2013-12-07 6 48 9 54
2013-12-08 10 85 14 65
2013-12-09 5 92 14 75
2013-12-10 10 66 15 62
2013-12-11 7 48 14 51
2013-12-12 12 108 7 61
2013-12-13 3 66 16 71
2013-12-14 2 43 13 61
2013-12-15 2 39 15 67
2013-12-16 11 76 11 67
2013-12-17 6 51 10 75
2013-12-18 5 45 5 56
2013-12-19 6 51 9 38
2013-12-20 6 73 14 46
2013-12-21 1 18 7 58
2013-12-22 3 41 8 48
2013-12-23 11 76 9 78
2013-12-24 5 64 10 62
2013-12-25 2 44 8 54
2013-12-26 5 24 12 58
2013-12-27 4 34 14 78
2013-12-28 14 44 12 53
2013-12-29 7 82 6 72
2013-12-30 15 82 12 46
2013-12-31 13 71 6 67
November 2013 192 1828 102 74
October 2013 141 1460 116 55
September 2013 98 808 75 40
August 2013 38 293 35 45
July 2013 46 253 28 37
June 2013 26 213 86 31
May 2013 51 348 42 165
April 2013 57 539 51 88
March 2013 69 744 58 64
2013-03-01 4 39 8 31
2013-03-02 3 56 3 28
2013-03-03 1 32 1 26
2013-03-04 1 52 0 36
2013-03-05 1 15 1 24
2013-03-06 3 58 0 23
2013-03-07 4 27 2 26
2013-03-08 2 22 1 25
2013-03-09 3 32 2 30
2013-03-10 4 25 1 24
2013-03-11 0 18 1 32
2013-03-12 1 21 2 46
2013-03-13 4 18 4 21
2013-03-14 3 11 0 37
2013-03-15 4 18 2 31
2013-03-16 1 11 1 22
2013-03-17 2 20 1 36
2013-03-18 1 31 5 30
2013-03-19 3 26 1 29
2013-03-20 4 16 4 28
2013-03-21 2 32 0 64
2013-03-22 2 15 1 22
2013-03-23 2 12 3 22
2013-03-24 5 45 0 36
2013-03-25 1 16 2 22
2013-03-26 0 14 1 31
2013-03-27 2 16 2 19
2013-03-28 0 9 3 25
2013-03-29 3 15 1 21
2013-03-30 1 14 1 25
2013-03-31 2 8 4 22
February 2013 110 1403 91 51
January 2013 138 1639 113 49
* 2012 1863 11381 918 70
* 2011 741 7884 698 76
December 2011 113 1639 94 66
November 2011 141 1631 98 66
October 2011 123 1155 91 76
September 2011 65 726 51 39
August 2011 54 368 42 32
July 2011 25 163 21 41
2011-07-01 0 0 1 19
2011-07-02 1 2 0 27
2011-07-03 0 1 1 36
2011-07-04 0 0 1 27
2011-07-05 1 7 0 27
2011-07-06 0 2 0 25
2011-07-07 0 1 0 27
2011-07-08 0 3 0 25
2011-07-09 0 0 0 23
2011-07-10 0 0 0 25
2011-07-11 0 1 0 23
2011-07-12 0 0 0 28
2011-07-13 1 6 1 23
2011-07-14 1 5 0 29
2011-07-15 1 1 1 16
2011-07-16 0 4 0 21
2011-07-17 0 4 0 41
2011-07-18 2 10 0 26
2011-07-19 0 4 0 21
2011-07-20 0 3 1 18
2011-07-21 2 2 1 22
2011-07-22 2 11 2 20
2011-07-23 3 13 3 21
2011-07-24 0 11 0 28
2011-07-25 2 13 3 27
2011-07-26 2 6 1 24
2011-07-27 4 7 3 17
2011-07-28 1 6 1 16
2011-07-29 1 33 1 19
2011-07-30 1 1 0 18
2011-07-31 0 6 0 16
June 2011 11 83 28 40
May 2011 34 276 34 37
April 2011 49 489 37 32
March 2011 30 310 47 29
2011-03-01 0 11 0 23
2011-03-02 1 7 4 19
2011-03-03 2 9 3 22
2011-03-04 1 5 1 22
2011-03-05 0 9 3 26
2011-03-06 1 14 2 22
2011-03-07 1 8 0 20
2011-03-08 1 11 1 23
2011-03-09 1 5 2 27
2011-03-10 1 4 4 27
2011-03-11 1 4 1 25
2011-03-12 1 10 2 24
2011-03-13 1 7 0 20
2011-03-14 1 12 2 19
2011-03-15 1 9 0 26
2011-03-16 0 8 3 22
2011-03-17 0 5 1 17
2011-03-18 3 12 1 23
2011-03-19 2 11 3 26
2011-03-20 2 15 1 26
2011-03-21 1 9 0 23
2011-03-22 1 11 2 23
2011-03-23 2 17 1 22
2011-03-24 0 8 0 25
2011-03-25 0 14 0 19
2011-03-26 0 6 0 17
2011-03-27 1 7 4 26
2011-03-28 1 18 3 28
2011-03-29 1 12 0 24
2011-03-30 1 21 2 29
2011-03-31 1 11 1 24
February 2011 38 407 65 31
January 2011 58 637 90 32
* 2010 444 2717 284 98
* 2009 217 1823 163 20
December 2009 15 142 18 11
2009-12-01 1 2 1 8
2009-12-02 0 4 0 7
2009-12-03 1 3 1 8
2009-12-04 0 7 1 11
2009-12-05 2 5 3 5
2009-12-06 1 4 0 9
2009-12-07 0 8 1 9
2009-12-08 1 10 0 7
2009-12-09 0 8 0 11
2009-12-10 1 5 1 6
2009-12-11 0 7 1 10
2009-12-12 0 3 0 8
2009-12-13 0 0 1 6
2009-12-14 0 1 0 7
2009-12-15 1 5 1 8
2009-12-16 0 7 0 9
2009-12-17 1 13 1 9
2009-12-18 2 14 0 7
2009-12-19 0 4 0 6
2009-12-20 0 1 0 7
2009-12-21 1 2 0 7
2009-12-22 0 1 0 7
2009-12-23 0 1 0 8
2009-12-24 1 5 0 6
2009-12-25 0 1 0 6
2009-12-26 0 1 1 6
2009-12-27 0 0 0 6
2009-12-28 1 4 2 7
2009-12-29 0 5 1 9
2009-12-30 0 4 1 9
2009-12-31 1 7 1 7
November 2009 21 148 25 20
October 2009 15 104 19 11
2009-10-01 0 2 0 5
2009-10-02 1 5 1 7
2009-10-03 0 3 1 7
2009-10-04 2 8 0 11
2009-10-05 0 14 0 7
2009-10-06 0 0 0 8
2009-10-07 1 1 1 6
2009-10-08 0 0 0 10
2009-10-09 0 1 2 10
2009-10-10 0 2 0 8
2009-10-11 0 1 1 6
2009-10-12 1 9 0 7
2009-10-13 2 7 2 9
2009-10-14 1 7 2 8
2009-10-15 1 7 1 7
2009-10-16 0 6 0 5
2009-10-17 1 2 1 5
2009-10-18 1 4 0 7
2009-10-19 0 0 0 8
2009-10-20 0 2 1 6
2009-10-21 0 4 0 7
2009-10-22 0 2 0 6
2009-10-23 0 0 1 5
2009-10-24 0 0 0 6
2009-10-25 1 2 0 11
2009-10-26 2 4 1 9
2009-10-27 1 5 1 8
2009-10-28 0 1 2 10
2009-10-29 0 1 1 7
2009-10-30 0 3 0 6
2009-10-31 0 1 0 6
September 2009 10 67 11 10
August 2009 6 37 9 11
July 2009 4 18 1 7
June 2009 6 28 1 8
May 2009 10 36 4 14
April 2009 12 72 7 11
March 2009 37 343 14 16
February 2009 24 324 21 16
January 2009 57 504 33 18
* 2008 119 553 148 28